sensor_id;sensor_type;location;lat;lon;timestamp;pressure;altitude;pressure_sealevel;temperature;humidity
18167;BME280;9208;42.688;23.404;2022-09-02T00:01:00;95158.09;;;22.17;100.00
18167;BME280;9208;42.688;23.404;2022-09-02T00:03:32;95159.97;;;22.22;100.00
18167;BME280;9208;42.688;23.404;2022-09-02T00:06:01;95162.19;;;22.24;100.00
18167;BME280;9208;42.688;23.404;2022-09-02T00:08:28;95170.56;;;22.24;100.00
18167;BME280;9208;42.688;23.404;2022-09-02T00:10:56;95164.59;;;22.27;100.00
18167;BME280;9208;42.688;23.404;2022-09-02T00:13:23;95150.09;;;22.29;100.00
18167;BME280;9208;42.688;23.404;2022-09-02T00:15:49;95152.13;;;22.28;100.00
18167;BME280;9208;42.688;23.404;2022-09-02T00:18:16;95152.69;;;22.27;100.00
18167;BME280;9208;42.688;23.404;2022-09-02T00:20:44;95154.00;;;22.18;100.00
18167;BME280;9208;42.688;23.404;2022-09-02T00:23:10;95149.91;;;22.19;100.00
18167;BME280;9208;42.688;23.404;2022-09-02T00:25:37;95147.84;;;22.27;100.00
18167;BME280;9208;42.688;23.404;2022-09-02T00:28:04;95146.53;;;22.28;100.00
18167;BME280;9208;42.688;23.404;2022-09-02T00:30:30;95153.78;;;22.31;100.00
18167;BME280;9208;42.688;23.404;2022-09-02T00:32:55;95162.53;;;22.35;100.00
18167;BME280;9208;42.688;23.404;2022-09-02T00:35:21;95162.53;;;22.35;100.00
18167;BME280;9208;42.688;23.404;2022-09-02T00:37:46;95166.66;;;22.34;100.00
18167;BME280;9208;42.688;23.404;2022-09-02T00:40:12;95170.56;;;22.31;100.00
18167;BME280;9208;42.688;23.404;2022-09-02T00:42:38;95174.09;;;22.32;100.00
18167;BME280;9208;42.688;23.404;2022-09-02T00:45:05;95174.66;;;22.30;100.00
18167;BME280;9208;42.688;23.404;2022-09-02T00:47:32;95183.97;;;22.33;100.00
18167;BME280;9208;42.688;23.404;2022-09-02T00:49:58;95181.34;;;22.35;100.00
18167;BME280;9208;42.688;23.404;2022-09-02T00:52:30;95181.53;;;22.37;100.00
18167;BME280;9208;42.688;23.404;2022-09-02T00:54:59;95175.94;;;22.37;100.00
18167;BME280;9208;42.688;23.404;2022-09-02T00:57:29;95175.59;;;22.33;100.00
18167;BME280;9208;42.688;23.404;2022-09-02T01:00:10;95178.53;;;22.35;100.00
18167;BME280;9208;42.688;23.404;2022-09-02T01:02:39;95184.53;;;22.31;100.00
18167;BME280;9208;42.688;23.404;2022-09-02T01:05:07;95184.69;;;22.33;100.00
18167;BME280;9208;42.688;23.404;2022-09-02T01:07:35;95175.94;;;22.37;100.00
18167;BME280;9208;42.688;23.404;2022-09-02T01:10:04;95173.88;;;22.37;100.00
18167;BME280;9208;42.688;23.404;2022-09-02T01:12:31;95171.84;;;22.45;100.00
18167;BME280;9208;42.688;23.404;2022-09-02T01:14:57;95166.63;;;22.42;100.00
18167;BME280;9208;42.688;23.404;2022-09-02T01:17:24;95162.72;;;22.45;100.00
18167;BME280;9208;42.688;23.404;2022-09-02T01:19:57;95167.94;;;22.48;100.00
18167;BME280;9208;42.688;23.404;2022-09-02T01:22:28;95169.97;;;22.48;100.00
18167;BME280;9208;42.688;23.404;2022-09-02T01:24:57;95170.19;;;22.50;100.00
18167;BME280;9208;42.688;23.404;2022-09-02T01:27:25;95165.50;;;22.52;100.00
18167;BME280;9208;42.688;23.404;2022-09-02T01:29:58;95169.78;;;22.53;100.00
18167;BME280;9208;42.688;23.404;2022-09-02T01:32:25;95164.59;;;22.50;100.00
18167;BME280;9208;42.688;23.404;2022-09-02T01:34:51;95172.03;;;22.55;100.00
18167;BME280;9208;42.688;23.404;2022-09-02T01:37:17;95177.38;;;22.60;100.00
18167;BME280;9208;42.688;23.404;2022-09-02T01:39:43;95172.94;;;22.57;100.00
18167;BME280;9208;42.688;23.404;2022-09-02T01:42:10;95168.28;;;22.60;100.00
18167;BME280;9208;42.688;23.404;2022-09-02T01:44:35;95183.53;;;22.66;100.00
18167;BME280;9208;42.688;23.404;2022-09-02T01:47:23;95179.97;;;22.66;100.00
18167;BME280;9208;42.688;23.404;2022-09-02T01:49:50;95166.56;;;22.72;100.00
18167;BME280;9208;42.688;23.404;2022-09-02T01:52:17;95171.00;;;22.75;100.00
18167;BME280;9208;42.688;23.404;2022-09-02T01:54:43;95166.19;;;22.75;100.00
18167;BME280;9208;42.688;23.404;2022-09-02T01:57:09;95155.34;;;22.79;100.00
18167;BME280;9208;42.688;23.404;2022-09-02T01:59:35;95150.69;;;22.82;100.00
18167;BME280;9208;42.688;23.404;2022-09-02T02:02:01;95148.25;;;22.78;100.00
18167;BME280;9208;42.688;23.404;2022-09-02T02:04:28;95148.25;;;22.78;100.00
18167;BME280;9208;42.688;23.404;2022-09-02T02:06:56;95137.66;;;22.77;100.00
18167;BME280;9208;42.688;23.404;2022-09-02T02:09:24;95143.81;;;22.75;100.00
18167;BME280;9208;42.688;23.404;2022-09-02T02:11:49;95137.31;;;22.73;100.00
18167;BME280;9208;42.688;23.404;2022-09-02T02:14:15;95131.16;;;22.74;100.00
18167;BME280;9208;42.688;23.404;2022-09-02T02:16:40;95138.25;;;22.68;100.00
18167;BME280;9208;42.688;23.404;2022-09-02T02:19:06;95135.84;;;22.64;100.00
18167;BME280;9208;42.688;23.404;2022-09-02T02:21:32;95145.13;;;22.67;100.00
18167;BME280;9208;42.688;23.404;2022-09-02T02:23:58;95145.91;;;22.60;100.00
18167;BME280;9208;42.688;23.404;2022-09-02T02:26:27;95158.38;;;22.66;100.00
18167;BME280;9208;42.688;23.404;2022-09-02T02:28:52;95151.13;;;22.63;100.00
18167;BME280;9208;42.688;23.404;2022-09-02T02:31:18;95155.06;;;22.53;100.00
18167;BME280;9208;42.688;23.404;2022-09-02T02:33:43;95162.53;;;22.50;100.00
18167;BME280;9208;42.688;23.404;2022-09-02T02:36:09;95161.22;;;22.44;100.00
18167;BME280;9208;42.688;23.404;2022-09-02T02:38:37;95164.78;;;22.37;100.00
18167;BME280;9208;42.688;23.404;2022-09-02T02:41:03;95159.91;;;22.37;100.00
18167;BME280;9208;42.688;23.404;2022-09-02T02:43:31;95164.41;;;22.33;100.00
18167;BME280;9208;42.688;23.404;2022-09-02T02:45:58;95155.09;;;22.30;100.00
18167;BME280;9208;42.688;23.404;2022-09-02T02:48:23;95156.59;;;22.31;100.00
18167;BME280;9208;42.688;23.404;2022-09-02T02:50:49;95157.16;;;22.30;100.00
18167;BME280;9208;42.688;23.404;2022-09-02T02:53:14;95162.19;;;22.24;100.00
18167;BME280;9208;42.688;23.404;2022-09-02T02:55:42;95159.41;;;22.16;100.00
18167;BME280;9208;42.688;23.404;2022-09-02T02:58:08;95150.69;;;22.12;100.00
18167;BME280;9208;42.688;23.404;2022-09-02T03:00:34;95145.47;;;22.16;100.00
18167;BME280;9208;42.688;23.404;2022-09-02T03:03:07;95146.22;;;22.09;100.00
18167;BME280;9208;42.688;23.404;2022-09-02T03:05:35;95147.88;;;22.12;100.00
18167;BME280;9208;42.688;23.404;2022-09-02T03:08:06;95151.25;;;22.03;100.00
18167;BME280;9208;42.688;23.404;2022-09-02T03:10:32;95151.81;;;22.02;100.00
18167;BME280;9208;42.688;23.404;2022-09-02T03:12:58;95157.00;;;22.05;100.00
18167;BME280;9208;42.688;23.404;2022-09-02T03:15:25;95148.09;;;21.99;100.00
18167;BME280;9208;42.688;23.404;2022-09-02T03:17:51;95152.19;;;21.98;100.00
18167;BME280;9208;42.688;23.404;2022-09-02T03:20:18;95153.28;;;21.95;100.00
18167;BME280;9208;42.688;23.404;2022-09-02T03:22:45;95149.41;;;21.98;100.00
18167;BME280;9208;42.688;23.404;2022-09-02T03:25:13;95150.69;;;21.97;100.00
18167;BME280;9208;42.688;23.404;2022-09-02T03:27:40;95156.25;;;21.97;100.00
18167;BME280;9208;42.688;23.404;2022-09-02T03:30:12;95153.47;;;21.97;100.00
18167;BME280;9208;42.688;23.404;2022-09-02T03:32:41;95160.00;;;21.92;100.00
18167;BME280;9208;42.688;23.404;2022-09-02T03:35:09;95152.94;;;21.91;100.00
18167;BME280;9208;42.688;23.404;2022-09-02T03:37:36;95149.59;;;21.93;100.00
18167;BME280;9208;42.688;23.404;2022-09-02T03:40:07;95151.25;;;21.96;100.00
18167;BME280;9208;42.688;23.404;2022-09-02T03:42:34;95161.66;;;21.95;100.00
18167;BME280;9208;42.688;23.404;2022-09-02T03:44:59;95159.63;;;21.88;100.00
18167;BME280;9208;42.688;23.404;2022-09-02T03:47:25;95163.00;;;21.87;100.00
18167;BME280;9208;42.688;23.404;2022-09-02T03:49:53;95170.06;;;21.88;100.00
18167;BME280;9208;42.688;23.404;2022-09-02T03:52:19;95173.41;;;21.86;100.00
18167;BME280;9208;42.688;23.404;2022-09-02T03:54:44;95178.81;;;21.84;100.00
18167;BME280;9208;42.688;23.404;2022-09-02T03:57:13;95186.97;;;21.82;100.00
18167;BME280;9208;42.688;23.404;2022-09-02T03:59:38;95190.88;;;21.79;100.00
18167;BME280;9208;42.688;23.404;2022-09-02T04:02:04;95197.22;;;21.80;100.00
18167;BME280;9208;42.688;23.404;2022-09-02T04:04:30;95190.31;;;21.81;100.00
18167;BME280;9208;42.688;23.404;2022-09-02T04:06:56;95199.44;;;21.81;100.00
18167;BME280;9208;42.688;23.404;2022-09-02T04:09:22;95192.19;;;21.78;100.00
18167;BME280;9208;42.688;23.404;2022-09-02T04:11:48;95200.56;;;21.78;100.00
18167;BME280;9208;42.688;23.404;2022-09-02T04:14:13;95191.22;;;21.68;100.00
18167;BME280;9208;42.688;23.404;2022-09-02T04:16:39;95194.22;;;21.70;100.00
18167;BME280;9208;42.688;23.404;2022-09-02T04:19:05;95200.56;;;21.71;100.00
18167;BME280;9208;42.688;23.404;2022-09-02T04:21:33;95200.19;;;21.74;100.00
18167;BME280;9208;42.688;23.404;2022-09-02T04:23:59;95208.38;;;21.72;100.00
18167;BME280;9208;42.688;23.404;2022-09-02T04:26:25;95204.81;;;21.72;100.00
18167;BME280;9208;42.688;23.404;2022-09-02T04:28:51;95214.31;;;21.69;100.00
18167;BME280;9208;42.688;23.404;2022-09-02T04:31:20;95221.56;;;21.72;100.00
18167;BME280;9208;42.688;23.404;2022-09-02T04:33:46;95219.53;;;21.72;100.00
18167;BME280;9208;42.688;23.404;2022-09-02T04:36:15;95221.56;;;21.72;100.00
18167;BME280;9208;42.688;23.404;2022-09-02T04:38:41;95218.22;;;21.73;100.00
18167;BME280;9208;42.688;23.404;2022-09-02T04:41:16;95218.59;;;21.77;100.00
18167;BME280;9208;42.688;23.404;2022-09-02T04:43:41;95225.66;;;21.78;100.00
18167;BME280;9208;42.688;23.404;2022-09-02T04:46:12;95217.28;;;21.78;100.00
18167;BME280;9208;42.688;23.404;2022-09-02T04:48:38;95229.94;;;21.79;100.00
18167;BME280;9208;42.688;23.404;2022-09-02T04:51:06;95234.03;;;21.78;100.00
18167;BME280;9208;42.688;23.404;2022-09-02T04:53:32;95231.44;;;21.80;100.00
18167;BME280;9208;42.688;23.404;2022-09-02T04:55:58;95229.38;;;21.81;100.00
18167;BME280;9208;42.688;23.404;2022-09-02T04:58:24;95233.69;;;21.82;100.00
18167;BME280;9208;42.688;23.404;2022-09-02T05:00:50;95226.81;;;21.83;100.00
18167;BME280;9208;42.688;23.404;2022-09-02T05:03:15;95230.53;;;21.85;100.00
18167;BME280;9208;42.688;23.404;2022-09-02T05:05:40;95241.88;;;21.87;100.00
18167;BME280;9208;42.688;23.404;2022-09-02T05:08:06;95230.69;;;21.87;100.00
18167;BME280;9208;42.688;23.404;2022-09-02T05:10:34;95241.13;;;21.87;100.00
18167;BME280;9208;42.688;23.404;2022-09-02T05:12:59;95233.69;;;21.89;100.00
18167;BME280;9208;42.688;23.404;2022-09-02T05:15:25;95239.44;;;21.91;100.00
18167;BME280;9208;42.688;23.404;2022-09-02T05:17:51;95235.56;;;21.94;100.00
18167;BME280;9208;42.688;23.404;2022-09-02T05:20:17;95235.72;;;21.96;100.00
18167;BME280;9208;42.688;23.404;2022-09-02T05:22:43;95237.22;;;21.97;100.00
18167;BME280;9208;42.688;23.404;2022-09-02T05:25:09;95240.75;;;21.98;100.00
18167;BME280;9208;42.688;23.404;2022-09-02T05:27:36;95234.06;;;22.01;100.00
18167;BME280;9208;42.688;23.404;2022-09-02T05:30:03;95237.41;;;22.07;100.00
18167;BME280;9208;42.688;23.404;2022-09-02T05:32:29;95245.06;;;22.14;100.00
18167;BME280;9208;42.688;23.404;2022-09-02T05:34:55;95245.97;;;22.16;100.00
18167;BME280;9208;42.688;23.404;2022-09-02T05:37:22;95245.44;;;22.18;100.00
18167;BME280;9208;42.688;23.404;2022-09-02T05:39:49;95243.19;;;22.24;100.00
18167;BME280;9208;42.688;23.404;2022-09-02T05:42:14;95238.91;;;22.23;100.00
18167;BME280;9208;42.688;23.404;2022-09-02T05:44:41;95243.34;;;22.26;100.00
18167;BME280;9208;42.688;23.404;2022-09-02T05:47:09;95232.38;;;22.28;100.00
18167;BME280;9208;42.688;23.404;2022-09-02T05:49:35;95240.38;;;22.31;100.00
18167;BME280;9208;42.688;23.404;2022-09-02T05:52:01;95233.69;;;22.34;100.00
18167;BME280;9208;42.688;23.404;2022-09-02T05:54:30;95252.69;;;22.36;100.00
18167;BME280;9208;42.688;23.404;2022-09-02T05:57:00;95242.22;;;22.36;100.00
18167;BME280;9208;42.688;23.404;2022-09-02T05:59:28;95241.13;;;22.39;100.00
18167;BME280;9208;42.688;23.404;2022-09-02T06:01:54;95243.16;;;22.39;100.00
18167;BME280;9208;42.688;23.404;2022-09-02T06:04:20;95240.56;;;22.41;100.00
18167;BME280;9208;42.688;23.404;2022-09-02T06:06:47;95232.91;;;22.41;100.00
18167;BME280;9208;42.688;23.404;2022-09-02T06:09:15;95241.13;;;22.39;100.00
18167;BME280;9208;42.688;23.404;2022-09-02T06:12:06;95239.44;;;22.36;100.00
18167;BME280;9208;42.688;23.404;2022-09-02T06:43:51;95250.06;;;22.15;100.00
18167;BME280;9208;42.688;23.404;2022-09-02T06:46:24;95247.09;;;22.21;100.00
18167;BME280;9208;42.688;23.404;2022-09-02T06:48:50;95252.28;;;22.24;100.00
18167;BME280;9208;42.688;23.404;2022-09-02T06:51:21;95264.59;;;22.29;100.00
18167;BME280;9208;42.688;23.404;2022-09-02T06:53:47;95256.38;;;22.23;100.00
18167;BME280;9208;42.688;23.404;2022-09-02T06:56:13;95262.91;;;22.26;100.00
18167;BME280;9208;42.688;23.404;2022-09-02T06:58:38;95255.28;;;22.26;100.00
18167;BME280;9208;42.688;23.404;2022-09-02T07:01:04;95262.53;;;22.29;100.00
18167;BME280;9208;42.688;23.404;2022-09-02T07:03:29;95265.91;;;22.28;100.00
18167;BME280;9208;42.688;23.404;2022-09-02T07:06:14;95268.69;;;22.35;100.00
18167;BME280;9208;42.688;23.404;2022-09-02T07:08:41;95267.19;;;22.42;100.00
18167;BME280;9208;42.688;23.404;2022-09-02T07:11:17;95274.25;;;22.35;100.00
18167;BME280;9208;42.688;23.404;2022-09-02T07:13:43;95270.94;;;22.29;100.00
18167;BME280;9208;42.688;23.404;2022-09-02T07:16:10;95279.66;;;22.33;100.00
18167;BME280;9208;42.688;23.404;2022-09-02T07:18:35;95281.88;;;22.35;100.00
18167;BME280;9208;42.688;23.404;2022-09-02T07:21:01;95282.47;;;22.41;100.00
18167;BME280;9208;42.688;23.404;2022-09-02T07:23:27;95277.59;;;22.41;100.00
18167;BME280;9208;42.688;23.404;2022-09-02T07:25:52;95271.66;;;22.45;100.00
18167;BME280;9208;42.688;23.404;2022-09-02T07:28:22;95267.03;;;22.47;100.00
18167;BME280;9208;42.688;23.404;2022-09-02T07:30:47;95269.81;;;22.47;100.00
18167;BME280;9208;42.688;23.404;2022-09-02T07:33:13;95275.22;;;22.45;100.00
18167;BME280;9208;42.688;23.404;2022-09-02T07:35:43;95281.72;;;22.48;100.00
18167;BME280;9208;42.688;23.404;2022-09-02T07:38:09;95280.25;;;22.47;100.00
18167;BME280;9208;42.688;23.404;2022-09-02T07:40:37;95279.50;;;22.46;100.00
18167;BME280;9208;42.688;23.404;2022-09-02T07:43:05;95283.97;;;22.49;100.00
18167;BME280;9208;42.688;23.404;2022-09-02T07:45:31;95283.97;;;22.49;100.00
18167;BME280;9208;42.688;23.404;2022-09-02T07:47:57;95283.41;;;22.51;100.00
18167;BME280;9208;42.688;23.404;2022-09-02T07:50:25;95278.38;;;22.49;100.00
18167;BME280;9208;42.688;23.404;2022-09-02T07:52:54;95279.13;;;22.50;100.00
18167;BME280;9208;42.688;23.404;2022-09-02T07:55:21;95277.25;;;22.52;100.00
18167;BME280;9208;42.688;23.404;2022-09-02T07:57:46;95283.78;;;22.55;100.00
18167;BME280;9208;42.688;23.404;2022-09-02T08:00:13;95291.78;;;22.58;100.00
18167;BME280;9208;42.688;23.404;2022-09-02T08:02:39;95280.97;;;22.62;100.00
18167;BME280;9208;42.688;23.404;2022-09-02T08:05:06;95292.53;;;22.66;100.00
18167;BME280;9208;42.688;23.404;2022-09-02T08:07:31;95294.16;;;22.69;100.00
18167;BME280;9208;42.688;23.404;2022-09-02T08:09:57;95298.84;;;22.74;100.00
18167;BME280;9208;42.688;23.404;2022-09-02T08:12:25;95293.97;;;22.75;100.00
18167;BME280;9208;42.688;23.404;2022-09-02T08:14:51;95304.59;;;22.76;100.00
18167;BME280;9208;42.688;23.404;2022-09-02T08:17:16;95299.94;;;22.79;100.00
18167;BME280;9208;42.688;23.404;2022-09-02T08:19:42;95301.06;;;22.76;100.00
18167;BME280;9208;42.688;23.404;2022-09-02T08:22:09;95298.25;;;22.76;100.00
18167;BME280;9208;42.688;23.404;2022-09-02T08:24:34;95296.59;;;22.80;100.00
18167;BME280;9208;42.688;23.404;2022-09-02T08:27:00;95303.66;;;22.81;100.00
18167;BME280;9208;42.688;23.404;2022-09-02T08:29:25;95304.41;;;22.82;100.00
18167;BME280;9208;42.688;23.404;2022-09-02T08:31:51;95308.88;;;22.77;100.00
18167;BME280;9208;42.688;23.404;2022-09-02T08:34:16;95304.59;;;22.76;100.00
18167;BME280;9208;42.688;23.404;2022-09-02T08:36:42;95304.97;;;22.80;100.00
18167;BME280;9208;42.688;23.404;2022-09-02T08:39:08;95292.84;;;22.85;100.00
18167;BME280;9208;42.688;23.404;2022-09-02T08:42:01;95293.41;;;22.84;100.00
18167;BME280;9208;42.688;23.404;2022-09-02T08:44:32;95294.72;;;22.83;100.00
18167;BME280;9208;42.688;23.404;2022-09-02T08:47:01;95299.56;;;22.82;100.00
18167;BME280;9208;42.688;23.404;2022-09-02T08:49:37;95296.75;;;22.82;100.00
18167;BME280;9208;42.688;23.404;2022-09-02T08:52:05;95290.06;;;22.85;100.00
18167;BME280;9208;42.688;23.404;2022-09-02T08:54:53;95295.25;;;22.89;100.00
18167;BME280;9208;42.688;23.404;2022-09-02T08:57:24;95292.66;;;22.91;100.00
18167;BME280;9208;42.688;23.404;2022-09-02T08:59:54;95288.16;;;22.95;100.00
18167;BME280;9208;42.688;23.404;2022-09-02T09:08:38;95286.28;;;22.98;100.00
18167;BME280;9208;42.688;23.404;2022-09-02T09:11:36;95293.00;;;23.02;100.00
18167;BME280;9208;42.688;23.404;2022-09-02T09:17:01;95283.81;;;23.09;100.00
18167;BME280;9208;42.688;23.404;2022-09-02T09:19:51;95279.16;;;23.12;100.00
18167;BME280;9208;42.688;23.404;2022-09-02T09:22:31;95270.41;;;23.15;100.00
18167;BME280;9208;42.688;23.404;2022-09-02T09:24:57;95263.31;;;23.22;100.00
18167;BME280;9208;42.688;23.404;2022-09-02T09:27:24;95268.53;;;23.18;100.00
18167;BME280;9208;42.688;23.404;2022-09-02T09:29:51;95278.22;;;23.24;100.00
18167;BME280;9208;42.688;23.404;2022-09-02T09:39:54;95264.91;;;23.40;100.00
18167;BME280;9208;42.688;23.404;2022-09-02T09:42:30;95269.16;;;23.48;100.00
18167;BME280;9208;42.688;23.404;2022-09-02T09:44:56;95257.78;;;23.46;100.00
18167;BME280;9208;42.688;23.404;2022-09-02T09:47:23;95254.09;;;23.36;100.00
18167;BME280;9208;42.688;23.404;2022-09-02T09:50:13;95263.19;;;23.44;100.00
18167;BME280;9208;42.688;23.404;2022-09-02T09:52:40;95260.41;;;23.44;100.00
18167;BME280;9208;42.688;23.404;2022-09-02T09:55:14;95259.28;;;23.47;100.00
18167;BME280;9208;42.688;23.404;2022-09-02T09:57:42;95263.00;;;23.50;100.00
18167;BME280;9208;42.688;23.404;2022-09-02T10:02:53;95270.25;;;23.53;100.00
18167;BME280;9208;42.688;23.404;2022-09-02T10:07:59;95272.47;;;23.54;100.00
18167;BME280;9208;42.688;23.404;2022-09-02T10:10:28;95269.88;;;23.56;100.00
18167;BME280;9208;42.688;23.404;2022-09-02T10:12:57;95274.34;;;23.59;100.00
18167;BME280;9208;42.688;23.404;2022-09-02T10:15:30;95269.47;;;23.60;100.00
18167;BME280;9208;42.688;23.404;2022-09-02T10:21:27;95270.56;;;23.64;100.00
18167;BME280;9208;42.688;23.404;2022-09-02T10:26:57;95260.16;;;23.57;100.00
18167;BME280;9208;42.688;23.404;2022-09-02T10:29:36;95267.22;;;23.58;100.00
18167;BME280;9208;42.688;23.404;2022-09-02T10:35:15;95255.66;;;23.62;100.00
18167;BME280;9208;42.688;23.404;2022-09-02T10:38:34;95248.00;;;23.62;100.00
18167;BME280;9208;42.688;23.404;2022-09-02T10:40:48;95262.56;;;23.61;100.00
18167;BME280;9208;42.688;23.404;2022-09-02T10:43:50;95257.69;;;23.61;100.00
18167;BME280;9208;42.688;23.404;2022-09-02T10:46:16;95259.53;;;23.66;100.00
18167;BME280;9208;42.688;23.404;2022-09-02T10:49:03;95259.13;;;23.77;100.00
18167;BME280;9208;42.688;23.404;2022-09-02T10:57:03;95256.34;;;24.02;100.00
18167;BME280;9208;42.688;23.404;2022-09-02T10:59:40;95262.63;;;24.10;100.00
18167;BME280;9208;42.688;23.404;2022-09-02T11:02:20;95257.16;;;24.19;100.00
18167;BME280;9208;42.688;23.404;2022-09-02T11:04:57;95259.72;;;24.25;100.00
18167;BME280;9208;42.688;23.404;2022-09-02T11:07:56;95252.97;;;24.28;100.00
18167;BME280;9208;42.688;23.404;2022-09-02T11:13:18;95252.88;;;24.35;100.00
18167;BME280;9208;42.688;23.404;2022-09-02T11:15:59;95254.44;;;24.29;100.00
18167;BME280;9208;42.688;23.404;2022-09-02T11:24:03;95239.94;;;24.23;100.00
18167;BME280;9208;42.688;23.404;2022-09-02T11:26:40;95236.03;;;24.43;100.00
18167;BME280;9208;42.688;23.404;2022-09-02T11:29:17;95228.03;;;24.56;100.00
18167;BME280;9208;42.688;23.404;2022-09-02T11:31:49;95231.03;;;24.75;100.00
18167;BME280;9208;42.688;23.404;2022-09-02T11:37:06;95225.63;;;24.77;100.00
18167;BME280;9208;42.688;23.404;2022-09-02T11:39:41;95213.50;;;24.92;100.00
18167;BME280;9208;42.688;23.404;2022-09-02T11:45:21;95210.94;;;25.03;100.00
18167;BME280;9208;42.688;23.404;2022-09-02T11:48:03;95199.09;;;25.05;100.00
18167;BME280;9208;42.688;23.404;2022-09-02T11:53:44;95190.63;;;25.12;100.00
18167;BME280;9208;42.688;23.404;2022-09-02T11:58:47;95186.06;;;25.34;100.00
18167;BME280;9208;42.688;23.404;2022-09-02T12:03:42;95191.88;;;25.45;100.00
18167;BME280;9208;42.688;23.404;2022-09-02T12:06:11;95198.53;;;25.50;100.00
18167;BME280;9208;42.688;23.404;2022-09-02T12:11:06;95203.75;;;25.53;100.00
18167;BME280;9208;42.688;23.404;2022-09-02T12:21:26;95202.25;;;25.52;100.00
18167;BME280;9208;42.688;23.404;2022-09-02T12:26:22;95199.63;;;25.54;100.00
18167;BME280;9208;42.688;23.404;2022-09-02T12:28:49;95189.88;;;25.55;100.00
18167;BME280;9208;42.688;23.404;2022-09-02T12:33:48;95184.47;;;25.40;100.00
18167;BME280;9208;42.688;23.404;2022-09-02T12:50:23;95158.44;;;25.30;100.00
18167;BME280;9208;42.688;23.404;2022-09-02T12:52:45;95161.38;;;25.32;100.00
18167;BME280;9208;42.688;23.404;2022-09-02T12:57:50;95147.19;;;25.30;100.00
18167;BME280;9208;42.688;23.404;2022-09-02T13:00:27;95148.41;;;25.37;100.00
18167;BME280;9208;42.688;23.404;2022-09-02T13:20:25;95152.53;;;25.72;100.00
18167;BME280;9208;42.688;23.404;2022-09-02T13:31:16;95145.78;;;25.75;100.00
18167;BME280;9208;42.688;23.404;2022-09-02T13:33:44;95141.94;;;25.80;100.00
18167;BME280;9208;42.688;23.404;2022-09-02T13:36:10;95147.72;;;25.82;100.00
18167;BME280;9208;42.688;23.404;2022-09-02T13:38:44;95146.97;;;25.82;100.00
18167;BME280;9208;42.688;23.404;2022-09-02T13:41:10;95153.94;;;25.90;100.00
18167;BME280;9208;42.688;23.404;2022-09-02T13:43:35;95147.38;;;26.05;100.00
18167;BME280;9208;42.688;23.404;2022-09-02T13:46:00;95153.88;;;26.07;100.00
18167;BME280;9208;42.688;23.404;2022-09-02T13:48:31;95154.94;;;26.12;100.00
18167;BME280;9208;42.688;23.404;2022-09-02T13:51:01;95160.75;;;25.87;100.00
18167;BME280;9208;42.688;23.404;2022-09-02T13:53:37;95156.88;;;25.83;100.00
18167;BME280;9208;42.688;23.404;2022-09-02T13:56:06;95169.41;;;25.72;100.00
18167;BME280;9208;42.688;23.404;2022-09-02T13:58:45;95157.81;;;25.58;100.00
18167;BME280;9208;42.688;23.404;2022-09-02T14:01:23;95164.16;;;25.59;100.00
18167;BME280;9208;42.688;23.404;2022-09-02T14:03:53;95163.66;;;25.43;100.00
18167;BME280;9208;42.688;23.404;2022-09-02T14:06:22;95167.13;;;25.34;100.00
18167;BME280;9208;42.688;23.404;2022-09-02T14:08:54;95188.03;;;25.24;100.00
18167;BME280;9208;42.688;23.404;2022-09-02T14:11:21;95189.97;;;25.04;100.00
18167;BME280;9208;42.688;23.404;2022-09-02T14:13:48;95194.84;;;24.87;100.00
18167;BME280;9208;42.688;23.404;2022-09-02T14:19:29;95211.84;;;24.13;100.00
18167;BME280;9208;42.688;23.404;2022-09-02T14:21:55;95229.63;;;23.76;100.00
18167;BME280;9208;42.688;23.404;2022-09-02T14:24:38;95257.25;;;23.40;100.00
18167;BME280;9208;42.688;23.404;2022-09-02T14:27:16;95250.56;;;23.36;100.00
18167;BME280;9208;42.688;23.404;2022-09-02T14:29:44;95243.56;;;23.12;100.00
18167;BME280;9208;42.688;23.404;2022-09-02T14:32:19;95244.13;;;23.11;100.00
18167;BME280;9208;42.688;23.404;2022-09-02T14:34:46;95233.16;;;23.05;100.00
18167;BME280;9208;42.688;23.404;2022-09-02T14:37:26;95245.84;;;22.99;100.00
18167;BME280;9208;42.688;23.404;2022-09-02T14:42:26;95248.50;;;22.89;100.00
18167;BME280;9208;42.688;23.404;2022-09-02T14:44:52;95252.59;;;22.88;100.00
18167;BME280;9208;42.688;23.404;2022-09-02T14:47:18;95246.66;;;22.77;100.00
18167;BME280;9208;42.688;23.404;2022-09-02T14:49:48;95245.97;;;22.61;100.00
18167;BME280;9208;42.688;23.404;2022-09-02T14:52:25;95246.88;;;22.64;100.00
18167;BME280;9208;42.688;23.404;2022-09-02T14:54:53;95247.81;;;22.66;100.00
18167;BME280;9208;42.688;23.404;2022-09-02T14:59:45;95248.00;;;22.38;100.00
18167;BME280;9208;42.688;23.404;2022-09-02T15:04:55;95243.94;;;22.32;100.00
18167;BME280;9208;42.688;23.404;2022-09-02T15:07:22;95253.78;;;22.40;100.00
18167;BME280;9208;42.688;23.404;2022-09-02T15:09:48;95247.81;;;22.44;100.00
18167;BME280;9208;42.688;23.404;2022-09-02T15:12:42;95241.13;;;22.47;100.00
18167;BME280;9208;42.688;23.404;2022-09-02T15:15:09;95239.44;;;22.51;100.00
18167;BME280;9208;42.688;23.404;2022-09-02T15:17:35;95234.06;;;22.46;100.00
18167;BME280;9208;42.688;23.404;2022-09-02T15:20:01;95245.00;;;22.44;100.00
18167;BME280;9208;42.688;23.404;2022-09-02T15:22:27;95246.31;;;22.43;100.00
18167;BME280;9208;42.688;23.404;2022-09-02T15:24:52;95253.78;;;22.48;100.00
18167;BME280;9208;42.688;23.404;2022-09-02T15:27:18;95247.47;;;22.55;100.00
18167;BME280;9208;42.688;23.404;2022-09-02T15:29:43;95259.38;;;22.63;100.00
18167;BME280;9208;42.688;23.404;2022-09-02T15:32:09;95257.84;;;22.69;100.00
18167;BME280;9208;42.688;23.404;2022-09-02T15:34:34;95261.94;;;22.68;100.00
18167;BME280;9208;42.688;23.404;2022-09-02T15:37:00;95250.41;;;22.72;100.00